Time;durP1;ratioP1;P1;durP2;ratioP2;P2;SDS_P1;SDS_P2;PMS_P1;PMS_P2;Temp;Humidity;BMP_temperature;BMP_pressure;BME280_temperature;BME280_humidity;BME280_pressure;Samples;Min_cycle;Max_cycle;Signal;HPM_P1;HPM_P2
2022/12/13 00:00:17;;;;;;;21.88;10.13;;;-3.50;99.90;;;;;;5002599;28;20041;-38
2022/12/13 00:02:44;;;;;;;20.45;9.98;;;-3.60;99.90;;;;;;5009333;28;20030;-37
2022/12/13 00:05:11;;;;;;;20.17;8.57;;;-3.60;99.90;;;;;;5004120;28;20070;-37
2022/12/13 00:07:37;;;;;;;24.77;10.93;;;-3.60;99.90;;;;;;5004734;28;20106;-37
2022/12/13 00:10:04;;;;;;;20.88;9.65;;;-3.60;99.90;;;;;;5004384;28;20499;-38
2022/12/13 00:12:30;;;;;;;19.15;9.43;;;-3.60;99.90;;;;;;5001822;28;20034;-38
2022/12/13 00:14:56;;;;;;;22.08;10.15;;;-3.60;99.90;;;;;;5006869;28;20045;-37
2022/12/13 00:17:22;;;;;;;25.60;9.88;;;-3.60;99.90;;;;;;5006497;28;20064;-46
2022/12/13 00:19:48;;;;;;;22.98;9.05;;;-3.70;99.90;;;;;;5005826;28;20026;-38
2022/12/13 00:22:14;;;;;;;25.95;10.65;;;-3.70;99.90;;;;;;5005261;28;20046;-38
2022/12/13 00:24:40;;;;;;;22.52;10.20;;;;;;;;;;5009870;28;20042;-37
2022/12/13 00:27:06;;;;;;;21.40;9.02;;;-3.70;99.90;;;;;;5006143;28;20046;-37
2022/12/13 00:29:32;;;;;;;20.50;9.85;;;-3.70;99.90;;;;;;5004645;28;20042;-37
2022/12/13 00:31:57;;;;;;;20.38;9.25;;;-3.80;99.90;;;;;;5004364;28;20403;-39
2022/12/13 00:34:24;;;;;;;18.27;9.00;;;-3.80;99.90;;;;;;5006330;28;20128;-38
2022/12/13 00:36:50;;;;;;;25.45;10.63;;;-3.80;99.90;;;;;;5008633;28;20038;-37
2022/12/13 00:39:17;;;;;;;23.67;10.80;;;-3.70;99.90;;;;;;5012919;28;20478;-39
2022/12/13 00:41:43;;;;;;;16.48;8.27;;;-3.70;99.90;;;;;;5011099;28;20034;-37
2022/12/13 00:44:11;;;;;;;20.08;9.13;;;-3.70;99.90;;;;;;5009669;28;20038;-37
2022/12/13 00:46:37;;;;;;;19.95;9.07;;;-3.70;99.90;;;;;;5007022;28;20099;-37
2022/12/13 00:49:04;;;;;;;19.30;9.07;;;-3.70;99.90;;;;;;5007892;28;20042;-38
2022/12/13 00:51:31;;;;;;;19.58;8.55;;;-3.70;99.90;;;;;;5007788;28;20038;-37
2022/12/13 00:53:57;;;;;;;19.75;9.70;;;-3.80;99.90;;;;;;5009023;28;20046;-38
2022/12/13 00:56:26;;;;;;;21.00;9.70;;;-3.80;99.90;;;;;;5003915;28;20085;-37
2022/12/13 00:58:52;;;;;;;21.77;9.93;;;-3.80;99.90;;;;;;5007386;28;20041;-37
2022/12/13 01:01:23;;;;;;;19.15;9.05;;;-3.80;99.90;;;;;;5001291;28;20042;-36
2022/12/13 01:03:49;;;;;;;21.13;9.35;;;-3.80;99.90;;;;;;5008508;28;20116;-37
2022/12/13 01:06:22;;;;;;;16.02;7.80;;;-3.80;99.90;;;;;;5007334;28;20041;-37
2022/12/13 01:08:48;;;;;;;16.83;7.63;;;-3.90;99.90;;;;;;4996603;28;20077;-37
2022/12/13 01:11:14;;;;;;;21.00;8.95;;;-3.90;99.90;;;;;;5002910;28;20482;-37
2022/12/13 01:13:40;;;;;;;17.92;8.45;;;-3.90;99.90;;;;;;5008255;28;20072;-37
2022/12/13 01:16:08;;;;;;;17.38;7.57;;;-3.90;99.90;;;;;;5007417;28;20082;-37
2022/12/13 01:18:34;;;;;;;16.92;7.85;;;-3.90;99.90;;;;;;5003310;28;20042;-37
2022/12/13 01:21:12;;;;;;;19.33;8.30;;;-3.90;99.90;;;;;;5008712;28;20053;-38
2022/12/13 01:23:38;;;;;;;20.80;9.00;;;-3.90;99.90;;;;;;5009704;28;20057;-38
2022/12/13 01:26:07;;;;;;;17.83;8.40;;;-3.90;99.90;;;;;;5010519;28;20045;-37
2022/12/13 01:28:33;;;;;;;21.50;8.63;;;-3.90;99.90;;;;;;5006076;28;20069;-38
2022/12/13 01:31:08;;;;;;;20.17;9.15;;;-3.90;99.90;;;;;;4987182;28;20123;-37
2022/12/13 01:33:34;;;;;;;14.50;7.25;;;-4.00;99.90;;;;;;5002685;28;20121;-37
2022/12/13 01:36:02;;;;;;;23.33;8.48;;;-4.00;99.90;;;;;;5004161;28;20045;-38
2022/12/13 01:38:28;;;;;;;16.90;7.78;;;-4.00;99.90;;;;;;5006437;28;20069;-37
2022/12/13 01:40:57;;;;;;;16.88;8.18;;;-4.00;99.90;;;;;;5007591;28;20088;-38
2022/12/13 01:43:27;;;;;;;21.58;9.60;;;-4.00;99.90;;;;;;5007336;28;20133;-37
2022/12/13 01:45:52;;;;;;;20.50;8.98;;;-4.00;99.90;;;;;;5000168;28;20057;-37
2022/12/13 01:48:33;;;;;;;21.50;8.63;;;-4.00;99.90;;;;;;5008769;28;20042;-37
2022/12/13 01:51:02;;;;;;;20.90;8.98;;;-4.00;99.90;;;;;;5005069;28;20037;-37
2022/12/13 01:53:34;;;;;;;19.23;9.05;;;-4.00;99.90;;;;;;5002222;28;20137;-37
2022/12/13 01:56:09;;;;;;;19.83;8.50;;;-4.00;99.90;;;;;;5007684;28;20149;-38
2022/12/13 01:58:37;;;;;;;24.27;9.70;;;-4.00;99.90;;;;;;5006222;28;20475;-39
2022/12/13 02:01:03;;;;;;;26.17;9.80;;;-4.00;99.90;;;;;;5003722;28;20042;-36
2022/12/13 02:03:29;;;;;;;18.63;9.02;;;-4.00;99.90;;;;;;5007996;28;20601;-37
2022/12/13 02:06:00;;;;;;;17.40;7.47;;;-4.00;99.90;;;;;;5005994;28;20069;-37
2022/12/13 02:08:27;;;;;;;23.77;9.55;;;-4.00;99.90;;;;;;5002282;28;20076;-36
2022/12/13 02:10:53;;;;;;;19.75;8.70;;;-4.00;99.90;;;;;;5003803;28;20056;-36
2022/12/13 02:13:19;;;;;;;19.20;8.05;;;-4.00;99.90;;;;;;5002632;28;20033;-37
2022/12/13 02:15:53;;;;;;;20.00;8.77;;;-4.00;99.90;;;;;;5003832;28;20078;-37
2022/12/13 02:18:45;;;;;;;19.60;8.80;;;-4.10;99.90;;;;;;5005450;28;20056;-37
2022/12/13 02:21:44;;;;;;;18.40;8.37;;;-4.10;99.90;;;;;;5005768;28;20481;-36
2022/12/13 02:24:42;;;;;;;22.58;9.93;;;-4.10;99.90;;;;;;4974048;28;20049;-36
2022/12/13 02:27:28;;;;;;;20.55;8.88;;;-4.10;99.90;;;;;;5022622;28;20042;-37
2022/12/13 02:30:21;;;;;;;17.08;7.50;;;-4.10;99.90;;;;;;5004958;28;20076;-37
2022/12/13 02:33:14;;;;;;;19.95;7.47;;;-4.10;99.90;;;;;;5002035;28;20050;-36
2022/12/13 02:36:22;;;;;;;20.42;8.05;;;-4.10;99.90;;;;;;5007967;28;20475;-37
2022/12/13 02:39:00;;;;;;;18.95;8.75;;;-4.20;99.90;;;;;;4982240;28;20511;-36
2022/12/13 02:41:33;;;;;;;17.20;8.52;;;-4.20;99.90;;;;;;5000014;28;20033;-37
2022/12/13 02:44:03;;;;;;;22.98;9.70;;;-4.20;99.90;;;;;;5002986;28;20506;-37
2022/12/13 02:46:34;;;;;;;15.35;7.70;;;-4.20;99.90;;;;;;5005041;28;20372;-36
2022/12/13 02:49:02;;;;;;;19.92;7.82;;;-4.20;99.90;;;;;;5008853;28;20048;-37
2022/12/13 02:51:28;;;;;;;20.80;9.05;;;-4.20;99.90;;;;;;4997944;28;20045;-37
2022/12/13 02:53:54;;;;;;;18.73;8.18;;;-4.20;99.90;;;;;;5005295;28;20083;-37
2022/12/13 02:56:20;;;;;;;22.88;8.40;;;-4.20;99.90;;;;;;5008881;28;20037;-38
2022/12/13 02:58:52;;;;;;;20.25;9.70;;;-4.20;99.90;;;;;;5007836;28;20115;-36
2022/12/13 03:01:32;;;;;;;18.65;8.65;;;-4.30;99.90;;;;;;5000990;28;20046;-37
2022/12/13 03:04:22;;;;;;;24.23;9.65;;;-4.30;99.90;;;;;;5005496;28;20042;-36
2022/12/13 03:06:55;;;;;;;23.60;9.13;;;-4.30;99.90;;;;;;5004678;28;20045;-37
2022/12/13 03:09:35;;;;;;;20.90;9.75;;;-4.30;99.90;;;;;;4995391;28;20046;-37
2022/12/13 03:15:27;;;;;;;20.17;8.68;;;-4.30;99.90;;;;;;4996054;28;20125;-37
2022/12/13 03:18:14;;;;;;;20.35;8.85;;;-4.30;99.90;;;;;;5003052;28;20084;-37
2022/12/13 03:20:46;;;;;;;20.42;8.30;;;-4.30;99.90;;;;;;5003414;28;20036;-37
2022/12/13 03:23:12;;;;;;;15.75;7.65;;;-4.30;99.90;;;;;;4999955;28;20046;-36
2022/12/13 03:25:38;;;;;;;20.88;8.88;;;-4.30;99.90;;;;;;5003484;28;20053;-38
2022/12/13 03:28:04;;;;;;;19.40;8.30;;;-4.30;99.90;;;;;;5004764;28;20121;-37
2022/12/13 03:30:31;;;;;;;21.77;8.57;;;-4.30;99.90;;;;;;5002061;28;20038;-38
2022/12/13 03:32:57;;;;;;;18.77;8.52;;;-4.30;99.90;;;;;;5000015;28;20064;-37
2022/12/13 03:35:23;;;;;;;20.67;9.05;;;-4.30;99.90;;;;;;5005055;28;20061;-37
2022/12/13 03:37:49;;;;;;;18.05;7.90;;;-4.30;99.90;;;;;;5004343;28;20030;-36
2022/12/13 03:40:16;;;;;;;20.40;8.13;;;-4.30;99.90;;;;;;5002386;28;20599;-38
2022/12/13 03:42:42;;;;;;;17.90;8.57;;;-4.30;99.90;;;;;;5006572;28;20042;-36
2022/12/13 03:45:08;;;;;;;19.80;9.00;;;-4.30;99.90;;;;;;5004949;28;20064;-38
2022/12/13 03:47:34;;;;;;;18.80;7.38;;;-4.30;99.90;;;;;;5002096;28;20875;-52
2022/12/13 03:49:59;;;;;;;17.15;7.82;;;-4.30;99.90;;;;;;5005386;28;20137;-38
2022/12/13 03:52:25;;;;;;;21.02;9.30;;;-4.30;99.90;;;;;;5000819;28;20487;-43
2022/12/13 03:54:51;;;;;;;19.85;8.70;;;-4.30;99.90;;;;;;5006542;28;20072;-37
2022/12/13 03:57:16;;;;;;;19.80;8.27;;;-4.30;99.90;;;;;;5006857;28;20069;-37
2022/12/13 03:59:42;;;;;;;18.50;7.80;;;-4.40;99.90;;;;;;5005504;28;20030;-36
2022/12/13 04:02:08;;;;;;;17.50;7.45;;;-4.40;99.90;;;;;;5001755;28;20624;-36
2022/12/13 04:04:33;;;;;;;16.75;8.40;;;-4.40;99.90;;;;;;5003015;28;20034;-37
2022/12/13 04:06:59;;;;;;;18.48;7.93;;;-4.50;99.90;;;;;;5006130;28;20491;-38
2022/12/13 04:09:25;;;;;;;20.17;8.40;;;-4.50;99.90;;;;;;5007788;28;20111;-36
2022/12/13 04:14:35;;;;;;;21.65;9.02;;;-4.50;99.90;;;;;;5010077;28;20065;-38
2022/12/13 04:17:00;;;;;;;21.40;9.05;;;-4.50;99.90;;;;;;5006429;28;20085;-38
2022/12/13 04:19:26;;;;;;;21.92;9.45;;;-4.50;99.90;;;;;;5007242;28;20074;-36
2022/12/13 04:21:53;;;;;;;18.15;8.15;;;-4.50;99.90;;;;;;5006384;28;20041;-36
2022/12/13 04:24:20;;;;;;;20.27;8.75;;;-4.50;99.90;;;;;;5008480;28;20483;-37
2022/12/13 04:26:45;;;;;;;21.30;8.18;;;-4.50;99.90;;;;;;5010664;28;20108;-37
2022/12/13 04:29:11;;;;;;;18.73;8.38;;;-4.50;99.90;;;;;;5007934;28;20037;-37
2022/12/13 04:31:37;;;;;;;15.80;8.30;;;-4.60;99.90;;;;;;5004423;28;20042;-36
2022/12/13 04:34:03;;;;;;;19.55;8.88;;;-4.60;99.90;;;;;;5008187;28;20041;-36
2022/12/13 04:36:29;;;;;;;17.35;7.85;;;-4.60;99.90;;;;;;5006294;28;20034;-41
2022/12/13 04:38:55;;;;;;;17.40;8.20;;;-4.60;99.90;;;;;;5004524;28;20034;-38
2022/12/13 04:41:21;;;;;;;18.10;7.78;;;-4.60;99.90;;;;;;5006554;28;20046;-37
2022/12/13 04:43:51;;;;;;;21.20;8.68;;;-4.60;99.90;;;;;;5012372;28;20431;-37
2022/12/13 04:46:21;;;;;;;13.00;6.80;;;-4.60;99.90;;;;;;5009772;28;20121;-49
2022/12/13 04:48:47;;;;;;;17.60;7.65;;;-4.70;99.90;;;;;;5004862;28;20498;-37
2022/12/13 04:51:15;;;;;;;15.25;7.10;;;-4.70;99.90;;;;;;5003880;28;20037;-43
2022/12/13 04:53:40;;;;;;;20.23;8.98;;;-4.80;99.90;;;;;;5008026;28;21422;-44
2022/12/13 04:56:06;;;;;;;20.90;8.75;;;-4.80;99.90;;;;;;5011494;28;20140;-38
2022/12/13 04:58:32;;;;;;;21.00;8.48;;;-4.80;99.90;;;;;;5006952;28;20112;-37
2022/12/13 05:00:58;;;;;;;19.13;8.32;;;-4.80;99.90;;;;;;5008332;28;20157;-37
2022/12/13 05:03:24;;;;;;;23.65;9.63;;;-4.80;99.90;;;;;;5005897;28;20045;-38
2022/12/13 05:05:50;;;;;;;21.10;9.25;;;-4.80;99.90;;;;;;5010222;28;20495;-37
2022/12/13 05:08:15;;;;;;;19.95;8.20;;;-4.80;99.90;;;;;;5009815;28;20515;-39
2022/12/13 05:10:41;;;;;;;21.73;9.27;;;-4.80;99.90;;;;;;5004036;28;20039;-37
2022/12/13 05:13:07;;;;;;;20.65;9.07;;;-4.80;99.90;;;;;;5007373;28;20046;-36
2022/12/13 05:15:33;;;;;;;21.83;8.88;;;-4.80;99.90;;;;;;5001293;28;20463;-38
2022/12/13 05:18:09;;;;;;;17.05;7.70;;;-4.80;99.90;;;;;;5008683;28;20056;-36
2022/12/13 05:20:35;;;;;;;21.83;8.68;;;-4.80;99.90;;;;;;5008288;28;20100;-37
2022/12/13 05:23:00;;;;;;;21.42;9.10;;;-4.80;99.90;;;;;;5009835;28;20057;-37
2022/12/13 05:25:26;;;;;;;22.52;9.70;;;-4.80;99.90;;;;;;5005229;28;20542;-36
2022/12/13 05:27:52;;;;;;;22.88;10.13;;;-4.80;99.90;;;;;;5010650;28;20040;-37
2022/12/13 05:30:18;;;;;;;19.98;9.15;;;-4.70;99.90;;;;;;5005955;28;20499;-37
2022/12/13 05:32:45;;;;;;;20.58;9.70;;;-4.70;99.90;;;;;;5002008;28;20034;-36
2022/12/13 05:35:14;;;;;;;20.40;9.23;;;-4.70;99.90;;;;;;5006944;28;20494;-39
2022/12/13 05:37:40;;;;;;;23.77;9.52;;;-4.70;99.90;;;;;;5001090;28;20074;-36
2022/12/13 05:40:07;;;;;;;20.65;9.07;;;-4.70;99.90;;;;;;5007540;28;20026;-37
2022/12/13 05:42:33;;;;;;;21.80;9.05;;;-4.70;99.90;;;;;;5007205;28;20157;-37
2022/12/13 05:44:58;;;;;;;23.90;9.05;;;-4.70;99.90;;;;;;5009519;28;20622;-36
2022/12/13 05:47:24;;;;;;;20.65;8.98;;;-4.70;99.90;;;;;;5005411;28;20041;-36
2022/12/13 05:49:50;;;;;;;19.98;9.13;;;-4.70;99.90;;;;;;5005191;28;20034;-36
2022/12/13 05:52:20;;;;;;;22.92;10.10;;;-4.70;99.90;;;;;;5001074;28;20057;-36
2022/12/13 05:54:47;;;;;;;19.05;8.68;;;-4.70;99.90;;;;;;5005634;28;20084;-37
2022/12/13 05:57:14;;;;;;;24.02;9.52;;;-4.70;99.90;;;;;;5005714;28;20034;-36
2022/12/13 05:59:39;;;;;;;23.60;10.45;;;-4.70;99.90;;;;;;5007887;28;20034;-39
2022/12/13 06:02:05;;;;;;;25.83;10.05;;;-4.70;99.90;;;;;;5003839;28;20123;-36
2022/12/13 06:04:31;;;;;;;22.70;10.23;;;-4.70;99.90;;;;;;5003025;28;20035;-38
2022/12/13 06:06:56;;;;;;;21.85;9.50;;;-4.70;99.90;;;;;;5002840;28;20450;-37
2022/12/13 06:09:23;;;;;;;22.65;10.25;;;-4.70;99.90;;;;;;4997306;28;20070;-37
2022/12/13 06:11:48;;;;;;;22.60;10.45;;;-4.70;99.90;;;;;;4999421;28;20042;-36
2022/12/13 06:14:15;;;;;;;20.83;10.27;;;-4.70;99.90;;;;;;5002996;28;20045;-38
2022/12/13 06:16:41;;;;;;;23.45;10.38;;;-4.70;99.90;;;;;;4999032;28;20340;-37
2022/12/13 06:19:07;;;;;;;21.77;10.73;;;-4.70;99.90;;;;;;5000492;28;20050;-36
2022/12/13 06:21:33;;;;;;;23.40;10.75;;;-4.60;99.90;;;;;;5000726;28;20038;-37
2022/12/13 06:23:59;;;;;;;23.70;10.23;;;-4.60;99.90;;;;;;5004229;28;20467;-36
2022/12/13 06:26:25;;;;;;;27.75;9.60;;;-4.60;99.90;;;;;;5002810;28;20499;-36
2022/12/13 06:28:50;;;;;;;24.67;10.55;;;-4.60;99.90;;;;;;5003818;28;20440;-37
2022/12/13 06:31:17;;;;;;;21.83;9.85;;;-4.60;99.90;;;;;;5002717;28;20486;-37
2022/12/13 06:33:43;;;;;;;21.88;9.45;;;-4.60;99.90;;;;;;5000731;28;20042;-38
2022/12/13 06:36:09;;;;;;;22.65;8.80;;;-4.60;99.90;;;;;;5000361;28;20042;-38
2022/12/13 06:38:34;;;;;;;17.27;7.75;;;-4.60;99.90;;;;;;5007120;28;20128;-37
2022/12/13 06:41:11;;;;;;;17.45;8.48;;;-4.70;99.90;;;;;;5006750;28;20125;-37
2022/12/13 06:43:40;;;;;;;18.95;8.23;;;-4.70;99.90;;;;;;5005217;28;20125;-37
2022/12/13 06:46:06;;;;;;;20.48;8.20;;;-4.70;99.90;;;;;;4998760;28;20139;-38
2022/12/13 06:48:32;;;;;;;18.95;8.88;;;-4.70;99.90;;;;;;5000767;28;20486;-37
2022/12/13 06:51:02;;;;;;;17.33;7.82;;;-4.80;99.90;;;;;;5000813;28;20042;-37
2022/12/13 06:53:28;;;;;;;20.58;9.93;;;-4.80;99.90;;;;;;5001828;28;20479;-37
2022/12/13 06:55:54;;;;;;;19.60;8.50;;;-4.90;99.90;;;;;;5004780;28;20045;-37
2022/12/13 06:58:20;;;;;;;22.35;10.27;;;-4.90;99.90;;;;;;5003957;28;20053;-38
2022/12/13 07:00:46;;;;;;;23.08;10.45;;;-4.90;99.90;;;;;;5005124;28;20038;-37
2022/12/13 07:03:11;;;;;;;25.50;11.20;;;-4.90;99.90;;;;;;5001497;28;20395;-36
2022/12/13 07:05:38;;;;;;;23.60;10.05;;;-4.90;99.90;;;;;;4998802;28;20360;-39
2022/12/13 07:08:04;;;;;;;27.83;11.88;;;-4.90;99.90;;;;;;5004214;28;20229;-36
2022/12/13 07:10:31;;;;;;;21.13;10.05;;;-4.90;99.90;;;;;;5006990;28;20038;-37
2022/12/13 07:12:56;;;;;;;21.67;9.45;;;-4.90;99.90;;;;;;5004752;28;20042;-37
2022/12/13 07:15:22;;;;;;;19.58;9.55;;;-4.90;99.90;;;;;;5006888;28;20480;-36
2022/12/13 07:17:49;;;;;;;19.85;9.23;;;-4.90;99.90;;;;;;5005224;28;20034;-37
2022/12/13 07:20:15;;;;;;;24.33;10.88;;;-4.90;99.90;;;;;;5006096;28;20048;-35
2022/12/13 07:22:41;;;;;;;24.02;10.90;;;-4.90;99.90;;;;;;5002784;28;20046;-36
2022/12/13 07:25:07;;;;;;;18.38;9.43;;;-5.00;99.90;;;;;;5004888;28;20049;-35
2022/12/13 07:27:33;;;;;;;24.52;9.85;;;-5.00;99.90;;;;;;5008523;28;20046;-35
2022/12/13 07:29:59;;;;;;;24.23;9.68;;;-5.00;99.90;;;;;;5003931;28;20049;-36
2022/12/13 07:32:25;;;;;;;24.00;10.20;;;-5.00;99.90;;;;;;5001671;28;20219;-37
2022/12/13 07:34:51;;;;;;;28.65;12.88;;;-4.90;99.90;;;;;;5001687;28;20121;-36
2022/12/13 07:37:17;;;;;;;34.10;13.95;;;-4.90;99.90;;;;;;5004853;28;20041;-35
2022/12/13 07:39:43;;;;;;;30.85;13.70;;;-4.90;99.90;;;;;;5000944;28;20064;-34
2022/12/13 07:42:08;;;;;;;33.80;13.02;;;-4.90;99.90;;;;;;4988949;28;20045;-34
2022/12/13 07:44:34;;;;;;;36.50;13.88;;;-4.90;99.90;;;;;;5003801;28;20767;-38
2022/12/13 07:47:00;;;;;;;34.28;14.40;;;-4.90;99.90;;;;;;5008457;28;20145;-35
2022/12/13 07:49:26;;;;;;;27.75;12.35;;;-4.90;99.90;;;;;;5011550;28;20049;-35
2022/12/13 07:51:51;;;;;;;32.00;13.40;;;-4.90;99.90;;;;;;5008819;28;20069;-35
2022/12/13 07:54:17;;;;;;;31.25;12.32;;;-4.90;99.90;;;;;;5008213;28;20049;-36
2022/12/13 07:56:43;;;;;;;29.05;12.35;;;-4.90;99.90;;;;;;5009738;28;20045;-35
2022/12/13 07:59:09;;;;;;;26.65;11.43;;;-4.90;99.90;;;;;;5003875;28;20037;-35
2022/12/13 08:01:35;;;;;;;25.48;11.85;;;-4.90;99.90;;;;;;5005471;28;20633;-38
2022/12/13 08:04:04;;;;;;;24.35;11.25;;;-4.80;99.90;;;;;;5005551;28;20045;-35
2022/12/13 08:06:35;;;;;;;24.00;10.05;;;-4.80;99.90;;;;;;5001642;28;20177;-38
2022/12/13 08:09:01;;;;;;;22.80;9.85;;;-4.80;99.90;;;;;;5009485;28;20538;-36
2022/12/13 08:11:26;;;;;;;24.60;11.30;;;-4.80;99.90;;;;;;5009479;28;20113;-36
2022/12/13 08:13:52;;;;;;;27.77;11.65;;;-4.70;99.90;;;;;;4999681;28;20045;-35
2022/12/13 08:16:18;;;;;;;27.60;11.73;;;-4.70;99.90;;;;;;5006410;28;20034;-36
2022/12/13 08:18:46;;;;;;;26.92;11.65;;;-4.70;99.90;;;;;;5008770;28;20491;-36
2022/12/13 08:21:12;;;;;;;28.80;10.68;;;-4.70;99.90;;;;;;5001251;28;20038;-36
2022/12/13 08:23:38;;;;;;;21.42;10.27;;;-4.70;99.90;;;;;;5002981;28;20042;-36
2022/12/13 08:26:05;;;;;;;27.05;10.75;;;-4.70;99.90;;;;;;5001376;28;20128;-36
2022/12/13 08:28:31;;;;;;;28.00;10.75;;;-4.70;99.90;;;;;;5000124;28;20041;-36
2022/12/13 08:31:06;;;;;;;27.63;11.02;;;-4.70;99.90;;;;;;5001472;28;20056;-38
2022/12/13 08:33:33;;;;;;;27.17;11.55;;;-4.60;99.90;;;;;;5007224;28;20529;-37
2022/12/13 08:36:10;;;;;;;25.83;11.43;;;-4.60;99.90;;;;;;5004196;28;20052;-36
2022/12/13 08:38:36;;;;;;;29.08;11.90;;;-4.60;99.90;;;;;;5002894;28;20100;-37
2022/12/13 08:41:02;;;;;;;26.58;11.13;;;-4.60;99.90;;;;;;5005035;28;20048;-36
2022/12/13 08:43:28;;;;;;;26.40;11.60;;;-4.50;99.90;;;;;;5005689;28;20049;-42
2022/12/13 08:45:54;;;;;;;24.50;11.38;;;-4.50;99.90;;;;;;5005845;28;20483;-42
2022/12/13 08:48:19;;;;;;;24.98;11.25;;;-4.50;99.90;;;;;;5007947;28;20037;-40
2022/12/13 08:50:45;;;;;;;28.05;11.98;;;-4.50;99.90;;;;;;5008474;28;20042;-40
2022/12/13 08:53:11;;;;;;;27.67;13.43;;;-4.40;99.90;;;;;;5006784;28;20048;-40
2022/12/13 08:55:36;;;;;;;27.88;10.88;;;-4.40;99.90;;;;;;5000611;28;20034;-44
2022/12/13 08:58:08;;;;;;;29.95;12.45;;;-4.40;99.90;;;;;;5003853;28;20096;-42
2022/12/13 09:00:35;;;;;;;28.63;11.85;;;-4.40;99.90;;;;;;5003377;28;20038;-41
2022/12/13 09:03:02;;;;;;;27.52;11.88;;;-4.30;99.90;;;;;;4999263;28;20799;-42
2022/12/13 09:05:28;;;;;;;28.10;11.75;;;-4.30;99.90;;;;;;4998464;28;20392;-40
2022/12/13 09:07:57;;;;;;;32.58;13.10;;;-4.20;99.90;;;;;;5002440;28;20053;-43
2022/12/13 09:10:23;;;;;;;34.70;14.32;;;-4.20;99.90;;;;;;5004601;28;20026;-40
2022/12/13 09:12:49;;;;;;;32.28;12.45;;;-4.20;99.90;;;;;;5003317;28;20038;-42
2022/12/13 09:15:14;;;;;;;29.05;11.82;;;-4.10;99.90;;;;;;5005417;28;20038;-41
2022/12/13 09:17:40;;;;;;;30.38;11.45;;;-4.10;99.90;;;;;;5010195;28;20041;-41
2022/12/13 09:20:08;;;;;;;26.52;12.07;;;-4.10;99.90;;;;;;5007537;28;20038;-42
2022/12/13 09:22:34;;;;;;;32.58;13.95;;;-4.00;99.90;;;;;;5005434;28;20763;-44
2022/12/13 09:25:01;;;;;;;26.80;12.63;;;-4.00;99.90;;;;;;5003338;28;20125;-42
2022/12/13 09:27:27;;;;;;;32.05;13.18;;;-3.90;99.90;;;;;;5009769;28;20044;-42
2022/12/13 09:29:53;;;;;;;28.33;12.38;;;-3.90;99.90;;;;;;5009679;28;20042;-42
2022/12/13 09:32:19;;;;;;;32.70;13.30;;;-3.80;99.90;;;;;;5008510;28;20561;-44
2022/12/13 09:34:45;;;;;;;33.55;14.02;;;-3.80;99.90;;;;;;5005233;28;20617;-41
2022/12/13 09:37:12;;;;;;;27.45;12.80;;;-3.80;99.90;;;;;;5001967;28;20053;-43
2022/12/13 09:39:38;;;;;;;25.98;11.27;;;-3.70;99.90;;;;;;5006837;28;20065;-42
2022/12/13 09:42:05;;;;;;;27.92;13.10;;;-3.60;99.90;;;;;;5005191;28;20041;-42
2022/12/13 09:44:37;;;;;;;29.50;13.32;;;-3.60;99.90;;;;;;5000413;28;20041;-48
2022/12/13 09:47:08;;;;;;;38.10;15.20;;;-3.60;99.90;;;;;;5004011;28;20143;-43
2022/12/13 09:49:38;;;;;;;28.85;11.93;;;-3.50;99.90;;;;;;5002445;28;20053;-41
2022/12/13 09:52:10;;;;;;;33.92;13.65;;;-3.40;99.90;;;;;;5002713;28;20072;-43
2022/12/13 09:54:37;;;;;;;31.05;13.70;;;-3.40;99.90;;;;;;4996240;28;20050;-40
2022/12/13 09:57:03;;;;;;;29.20;11.90;;;-3.30;99.90;;;;;;5005887;28;20046;-42
2022/12/13 09:59:34;;;;;;;27.40;12.93;;;-3.20;99.90;;;;;;4997437;28;20045;-40
2022/12/13 10:02:16;;;;;;;42.60;14.32;;;-3.10;99.90;;;;;;4997062;28;20091;-37
2022/12/13 10:04:43;;;;;;;44.03;19.15;;;-3.10;99.90;;;;;;5003385;28;20034;-38
2022/12/13 10:07:18;;;;;;;36.65;17.08;;;-3.00;99.90;;;;;;5010875;28;20079;-39
2022/12/13 10:09:44;;;;;;;38.60;17.65;;;-2.90;99.90;;;;;;5021021;28;20046;-34
2022/12/13 10:12:13;;;;;;;41.80;19.05;;;-2.80;99.90;;;;;;5005228;28;20099;-38
2022/12/13 10:14:46;;;;;;;46.47;19.88;;;-2.80;99.90;;;;;;5001235;28;20044;-36
2022/12/13 10:17:18;;;;;;;32.28;16.38;;;-2.70;99.90;;;;;;5000022;28;20041;-36
2022/12/13 10:19:45;;;;;;;33.85;13.68;;;-2.60;99.90;;;;;;5002334;28;20103;-35
2022/12/13 10:22:14;;;;;;;33.17;14.65;;;-2.50;99.90;;;;;;4999648;28;20037;-37
2022/12/13 10:24:59;;;;;;;29.65;13.98;;;-2.50;99.90;;;;;;5001859;28;20042;-36
2022/12/13 10:27:39;;;;;;;32.10;13.45;;;-2.30;99.90;;;;;;5004322;28;20044;-37
2022/12/13 10:30:13;;;;;;;35.67;14.23;;;-2.20;99.90;;;;;;5001566;28;20041;-36
2022/12/13 10:32:53;;;;;;;27.08;12.40;;;-2.20;99.90;;;;;;5002557;28;20137;-39
2022/12/13 10:35:28;;;;;;;29.80;12.75;;;-2.00;99.90;;;;;;5000019;28;20042;-40
2022/12/13 10:37:55;;;;;;;31.20;12.40;;;-1.80;99.90;;;;;;5014255;28;20800;-35
2022/12/13 10:40:39;;;;;;;31.25;13.80;;;-1.30;99.90;;;;;;5006611;28;20044;-36
2022/12/13 10:43:13;;;;;;;26.35;12.93;;;-0.60;99.90;;;;;;5005292;28;20045;-41
2022/12/13 10:45:39;;;;;;;34.25;14.32;;;0.10;99.90;;;;;;5001531;28;20115;-37
2022/12/13 10:48:16;;;;;;;30.48;14.25;;;0.60;99.90;;;;;;4999616;28;20196;-36
2022/12/13 10:50:42;;;;;;;30.67;13.85;;;1.20;99.90;;;;;;5004656;28;20053;-37
2022/12/13 10:53:18;;;;;;;27.42;12.93;;;1.70;99.90;;;;;;5003855;28;20050;-37
2022/12/13 10:55:44;;;;;;;24.52;12.18;;;2.10;99.90;;;;;;5004205;28;20095;-37
2022/12/13 10:58:18;;;;;;;23.08;11.63;;;2.40;99.90;;;;;;5008205;28;20503;-37
2022/12/13 11:00:46;;;;;;;25.77;11.93;;;2.70;99.90;;;;;;5005015;28;20049;-36
2022/12/13 11:03:32;;;;;;;24.88;11.27;;;3.00;99.90;;;;;;5001432;28;20041;-37
2022/12/13 11:06:12;;;;;;;22.40;11.15;;;3.00;99.90;;;;;;5002486;28;20454;-36
2022/12/13 11:08:38;;;;;;;22.38;11.70;;;3.10;99.90;;;;;;5001020;28;21024;-36
2022/12/13 11:11:05;;;;;;;22.83;11.77;;;;;;;;;;5004674;28;20045;-37
2022/12/13 11:13:44;;;;;;;25.17;12.75;;;3.20;99.90;;;;;;5005052;28;20414;-38
2022/12/13 11:16:31;;;;;;;21.58;10.93;;;3.50;99.90;;;;;;5005019;28;20042;-39
2022/12/13 11:19:01;;;;;;;21.85;10.73;;;3.80;99.90;;;;;;5004325;28;20483;-37
2022/12/13 11:21:32;;;;;;;21.30;11.20;;;4.00;99.90;;;;;;4998605;28;20045;-36
2022/12/13 11:24:02;;;;;;;21.58;10.20;;;4.10;99.90;;;;;;5000944;28;20088;-36
2022/12/13 11:26:31;;;;;;;24.65;11.40;;;4.20;99.90;;;;;;5004150;28;20266;-37
2022/12/13 11:29:23;;;;;;;21.00;10.43;;;4.40;99.90;;;;;;5001594;28;20131;-37
2022/12/13 11:31:57;;;;;;;20.37;10.13;;;4.60;99.90;;;;;;5004401;28;20380;-37
2022/12/13 11:34:37;;;;;;;23.77;11.38;;;4.70;99.90;;;;;;5001475;28;20034;-37
2022/12/13 11:37:15;;;;;;;19.85;11.98;;;4.70;99.90;;;;;;5000358;28;20045;-47
2022/12/13 11:39:54;;;;;;;22.42;11.45;;;4.90;99.90;;;;;;4997420;28;20468;-44
2022/12/13 11:42:38;;;;;;;21.00;10.30;;;5.30;99.90;;;;;;5002054;28;20050;-42
2022/12/13 11:45:19;;;;;;;19.98;11.05;;;5.60;99.50;;;;;;5002429;28;20053;-44
2022/12/13 11:48:09;;;;;;;19.00;10.68;;;5.90;99.70;;;;;;4999130;28;20076;-47
2022/12/13 11:50:45;;;;;;;21.33;11.13;;;6.10;99.30;;;;;;5001698;28;20046;-46
2022/12/13 11:53:34;;;;;;;20.90;11.52;;;6.30;98.00;;;;;;4999852;28;20418;-40
2022/12/13 11:56:03;;;;;;;20.85;11.93;;;6.50;98.00;;;;;;4999831;28;20123;-45
2022/12/13 11:58:56;;;;;;;20.63;10.88;;;6.60;98.10;;;;;;4998147;28;20073;-46
2022/12/13 12:01:26;;;;;;;;;;;6.90;97.60;;;;;;4975398;28;20084;-45
2022/12/13 12:04:14;;;;;;;20.17;10.07;;;6.80;91.60;;;;;;5006077;28;20390;-45
2022/12/13 12:07:11;;;;;;;20.85;10.73;;;6.80;94.20;;;;;;5004659;28;20041;-39
2022/12/13 12:09:42;;;;;;;20.25;11.57;;;6.70;95.40;;;;;;5000129;28;20069;-38
2022/12/13 12:12:35;;;;;;;22.13;12.07;;;6.70;94.80;;;;;;4998709;28;20571;-38
2022/12/13 12:15:04;;;;;;;;;;;6.70;94.30;;;;;;4988477;28;20046;-37
2022/12/13 12:17:30;;;;;;;19.90;10.88;;;6.70;91.70;;;;;;4986268;28;19992;-37
2022/12/13 12:19:57;;;;;;;21.98;11.80;;;6.70;95.90;;;;;;5006229;28;20125;-36
2022/12/13 12:22:35;;;;;;;24.15;12.55;;;6.70;96.00;;;;;;5006024;28;20042;-37
2022/12/13 12:25:28;;;;;;;21.15;11.95;;;6.80;94.30;;;;;;5000759;28;20046;-37
2022/12/13 12:28:07;;;;;;;;;;;6.90;94.20;;;;;;5006150;28;20097;-37
2022/12/13 12:30:47;;;;;;;20.60;11.45;;;7.00;90.80;;;;;;5007257;28;19928;-37
2022/12/13 12:33:51;;;;;;;23.63;12.18;;;7.00;92.20;;;;;;5006660;28;20045;-38
2022/12/13 12:36:39;;;;;;;22.00;11.15;;;7.20;92.40;;;;;;5005179;28;20160;-37
2022/12/13 12:39:32;;;;;;;21.00;10.88;;;7.20;93.90;;;;;;5000319;28;20149;-37
2022/12/13 12:42:21;;;;;;;20.67;11.10;;;7.30;94.20;;;;;;4998840;28;20049;-37
2022/12/13 12:44:50;;;;;;;24.23;12.52;;;7.30;93.00;;;;;;5007588;28;20507;-38
2022/12/13 12:47:40;;;;;;;18.20;11.07;;;7.80;93.90;;;;;;4999933;28;20053;-38
2022/12/13 12:50:25;;;;;;;24.02;12.00;;;8.00;93.20;;;;;;5021999;28;20136;-37
2022/12/13 12:53:26;;;;;;;20.52;11.68;;;7.80;90.10;;;;;;5007455;28;20096;-37
2022/12/13 12:55:54;;;;;;;19.70;12.00;;;7.40;89.00;;;;;;5004772;28;20038;-38